createdAt,value
2022-10-30T00:02:00.208Z,15.93
2022-10-30T00:05:01.816Z,15.72
2022-10-30T00:08:03.287Z,15.75
2022-10-30T00:11:09.704Z,15.83
2022-10-30T00:14:11.193Z,15.86
2022-10-30T00:17:12.580Z,15.76
2022-10-30T00:20:14.112Z,15.29
2022-10-30T00:23:15.856Z,15.63
2022-10-30T00:26:18.594Z,15.59
2022-10-30T00:29:20.202Z,15.59
2022-10-30T00:32:21.783Z,15.62
2022-10-30T00:35:23.599Z,15.80
2022-10-30T00:38:25.009Z,15.93
2022-10-30T00:41:26.583Z,15.93
2022-10-30T00:44:45.155Z,15.91
2022-10-30T00:47:52.789Z,15.86
2022-10-30T00:50:55.558Z,15.87
2022-10-30T00:53:59.587Z,15.75
2022-10-30T00:57:02.945Z,15.59
2022-10-30T01:00:07.215Z,15.48
2022-10-30T01:03:10.924Z,15.43
2022-10-30T01:06:15.444Z,15.40
2022-10-30T01:09:16.881Z,15.24
2022-10-30T01:12:18.336Z,14.86
2022-10-30T01:15:26.617Z,15.14
2022-10-30T01:18:52.888Z,15.26
2022-10-30T01:21:57.231Z,14.82
2022-10-30T01:25:33.404Z,14.53
2022-10-30T01:28:43.730Z,14.46
2022-10-30T01:31:52.421Z,14.62
2022-10-30T01:35:02.984Z,14.55
2022-10-30T01:38:17.599Z,14.50
2022-10-30T01:41:19.189Z,14.61
2022-10-30T01:44:24.910Z,14.61
2022-10-30T01:47:41.948Z,14.61
2022-10-30T01:51:16.642Z,14.52
2022-10-30T01:54:30.231Z,14.62
2022-10-30T01:57:55.837Z,14.66
2022-10-30T02:00:59.234Z,14.71
2022-10-30T02:07:11.364Z,14.56
2022-10-30T02:10:18.664Z,14.48
2022-10-30T02:13:20.627Z,14.14
2022-10-30T02:16:23.158Z,14.19
2022-10-30T02:19:24.641Z,14.17
2022-10-30T02:22:26.446Z,14.28
2022-10-30T02:25:28.009Z,14.25
2022-10-30T02:28:29.476Z,14.05
2022-10-30T02:31:30.946Z,13.84
2022-10-30T02:34:32.431Z,13.80
2022-10-30T02:37:35.587Z,14.04
2022-10-30T02:40:37.038Z,14.11
2022-10-30T02:43:38.647Z,14.04
2022-10-30T02:46:40.231Z,14.05
2022-10-30T02:49:41.645Z,14.09
2022-10-30T02:52:43.139Z,14.16
2022-10-30T02:55:44.628Z,14.12
2022-10-30T02:58:46.287Z,14.14
2022-10-30T03:01:47.736Z,14.19
2022-10-30T03:04:49.255Z,13.97
2022-10-30T03:07:51.454Z,13.97
2022-10-30T03:10:53.015Z,13.92
2022-10-30T03:13:55.006Z,13.98
2022-10-30T03:16:56.519Z,13.83
2022-10-30T03:19:58.015Z,13.90
2022-10-30T03:22:59.439Z,13.99
2022-10-30T03:26:01.131Z,13.79
2022-10-30T03:29:03.892Z,13.58
2022-10-30T03:32:10.676Z,13.64
2022-10-30T03:35:19.705Z,13.45
2022-10-30T03:38:21.151Z,13.61
2022-10-30T03:41:22.684Z,13.80
2022-10-30T03:44:24.063Z,13.86
2022-10-30T03:47:25.457Z,13.84
2022-10-30T03:50:29.475Z,13.80
2022-10-30T03:53:31.224Z,13.49
2022-10-30T03:56:32.782Z,13.70
2022-10-30T03:59:34.788Z,13.60
2022-10-30T04:03:05.603Z,13.47
2022-10-30T04:06:07.722Z,13.57
2022-10-30T04:09:09.378Z,13.63
2022-10-30T04:12:15.656Z,13.36
2022-10-30T04:15:17.185Z,13.50
2022-10-30T04:18:19.054Z,13.29
2022-10-30T04:21:22.225Z,13.22
2022-10-30T04:24:23.814Z,13.56
2022-10-30T04:27:28.682Z,13.41
2022-10-30T04:30:35.061Z,13.28
2022-10-30T04:33:36.584Z,13.40
2022-10-30T04:36:38.249Z,13.47
2022-10-30T04:39:43.746Z,13.48
2022-10-30T04:42:53.043Z,13.02
2022-10-30T04:45:55.113Z,13.11
2022-10-30T04:48:57.249Z,13.20
2022-10-30T04:51:58.924Z,13.32
2022-10-30T04:55:00.480Z,13.19
2022-10-30T04:58:04.938Z,13.36
2022-10-30T05:01:10.286Z,13.34
2022-10-30T05:04:12.337Z,13.53
2022-10-30T05:07:17.320Z,13.59
2022-10-30T05:10:18.779Z,13.72
2022-10-30T05:13:20.290Z,13.54
2022-10-30T05:16:21.819Z,13.70
2022-10-30T05:19:23.613Z,13.51
2022-10-30T05:22:31.083Z,13.47
2022-10-30T05:25:32.921Z,13.48
2022-10-30T05:28:36.548Z,13.46
2022-10-30T05:31:39.228Z,13.52
2022-10-30T05:35:06.500Z,13.54
2022-10-30T05:38:08.131Z,13.36
2022-10-30T05:41:09.555Z,13.31
2022-10-30T05:44:11.775Z,12.93
2022-10-30T05:47:16.208Z,13.03
2022-10-30T05:50:21.647Z,13.05
2022-10-30T05:53:37.978Z,13.14
2022-10-30T05:56:40.551Z,13.12
2022-10-30T05:59:42.291Z,13.16
2022-10-30T06:02:43.907Z,13.22
2022-10-30T06:05:48.047Z,13.30
2022-10-30T06:08:49.930Z,13.30
2022-10-30T06:12:17.291Z,13.26
2022-10-30T06:15:28.459Z,13.37
2022-10-30T06:18:29.908Z,13.26
2022-10-30T06:21:40.461Z,13.07
2022-10-30T06:25:00.729Z,13.23
2022-10-30T06:28:27.932Z,13.12
2022-10-30T06:31:29.813Z,13.12
2022-10-30T06:34:31.266Z,13.08
2022-10-30T06:37:32.781Z,13.09
2022-10-30T06:40:40.365Z,12.79
2022-10-30T06:43:52.942Z,12.78
2022-10-30T06:46:57.288Z,13.11
2022-10-30T06:49:58.674Z,13.36
2022-10-30T06:53:00.326Z,13.62
2022-10-30T06:56:03.321Z,13.65
2022-10-30T06:59:17.462Z,13.73
2022-10-30T07:02:21.331Z,13.87
2022-10-30T07:05:28.633Z,13.90
2022-10-30T07:08:30.052Z,14.00
2022-10-30T07:11:32.948Z,13.98
2022-10-30T07:14:55.787Z,14.04
2022-10-30T07:18:07.008Z,13.99
2022-10-30T07:21:11.314Z,13.97
2022-10-30T07:24:12.935Z,13.99
2022-10-30T07:27:42.434Z,14.13
2022-10-30T07:31:02.264Z,14.13
2022-10-30T07:34:22.058Z,14.20
2022-10-30T07:38:10.865Z,14.39
2022-10-30T07:41:21.880Z,14.41
2022-10-30T07:44:25.935Z,14.51
2022-10-30T07:47:42.377Z,14.59
2022-10-30T07:50:57.771Z,14.65
2022-10-30T07:53:59.252Z,14.68
2022-10-30T07:57:00.761Z,14.79
2022-10-30T08:00:28.083Z,14.96
2022-10-30T08:03:38.047Z,15.03
2022-10-30T08:07:00.856Z,14.99
2022-10-30T08:10:02.931Z,15.24
2022-10-30T08:13:04.443Z,15.42
2022-10-30T08:16:06.464Z,15.56
2022-10-30T08:19:07.971Z,15.64
2022-10-30T08:22:11.068Z,16.01
2022-10-30T08:25:14.494Z,15.95
2022-10-30T08:28:16.055Z,15.94
2022-10-30T08:31:19.354Z,16.06
2022-10-30T08:34:44.082Z,16.46
2022-10-30T08:37:45.595Z,16.39
2022-10-30T08:40:47.058Z,16.29
2022-10-30T08:43:48.572Z,16.47
2022-10-30T08:46:50.389Z,16.46
2022-10-30T08:49:53.163Z,16.60
2022-10-30T08:53:02.358Z,16.76
2022-10-30T08:56:05.213Z,16.87
2022-10-30T08:59:21.441Z,16.98
2022-10-30T09:02:24.828Z,17.12
2022-10-30T09:05:45.142Z,17.38
2022-10-30T09:08:52.297Z,17.61
2022-10-30T09:12:04.387Z,17.59
2022-10-30T09:15:13.258Z,17.69
2022-10-30T09:18:26.172Z,17.81
2022-10-30T09:21:28.206Z,17.89
2022-10-30T09:24:29.690Z,17.81
2022-10-30T09:27:38.343Z,18.07
2022-10-30T09:30:40.931Z,18.13
2022-10-30T09:33:45.959Z,18.19
2022-10-30T09:37:14.896Z,18.25
2022-10-30T09:40:29.685Z,18.33
2022-10-30T09:43:43.766Z,18.30
2022-10-30T09:47:08.586Z,18.85
2022-10-30T09:50:34.518Z,18.90
2022-10-30T09:53:59.837Z,18.76
2022-10-30T09:57:23.179Z,18.95
2022-10-30T10:00:36.745Z,19.48
2022-10-30T10:04:27.395Z,19.58
2022-10-30T10:07:59.760Z,19.70
2022-10-30T10:11:42.482Z,19.87
2022-10-30T10:14:46.738Z,19.95
2022-10-30T10:17:48.146Z,20.01
2022-10-30T10:20:53.666Z,20.25
2022-10-30T10:23:58.017Z,20.22
2022-10-30T10:27:07.014Z,20.42
2022-10-30T10:30:20.294Z,20.39
2022-10-30T10:33:33.666Z,20.03
2022-10-30T10:36:43.994Z,20.35
2022-10-30T10:40:09.635Z,20.05
2022-10-30T10:43:30.095Z,20.26
2022-10-30T10:46:43.325Z,20.41
2022-10-30T10:50:10.378Z,20.44
2022-10-30T10:53:21.728Z,20.24
2022-10-30T10:56:31.883Z,20.30
2022-10-30T10:59:42.146Z,20.35
2022-10-30T11:03:04.042Z,20.47
2022-10-30T11:06:19.109Z,20.23
2022-10-30T11:09:23.524Z,20.29
2022-10-30T11:12:33.917Z,20.20
2022-10-30T11:16:04.128Z,20.23
2022-10-30T11:19:09.012Z,20.20
2022-10-30T11:22:25.638Z,20.23
2022-10-30T11:25:35.377Z,20.33
2022-10-30T11:28:58.880Z,20.19
2022-10-30T11:32:03.299Z,20.30
2022-10-30T11:35:07.553Z,20.20
2022-10-30T11:38:18.404Z,20.33
2022-10-30T11:41:20.771Z,20.41
2022-10-30T11:44:25.305Z,20.33
2022-10-30T11:47:37.031Z,20.33
2022-10-30T11:50:38.645Z,20.24
2022-10-30T11:53:48.960Z,20.26
2022-10-30T11:56:51.361Z,20.21
2022-10-30T11:59:59.335Z,20.21
2022-10-30T12:03:36.201Z,20.19
2022-10-30T12:06:37.986Z,20.18
2022-10-30T12:09:47.135Z,20.28
2022-10-30T12:12:51.195Z,20.42
2022-10-30T12:16:14.812Z,20.39
2022-10-30T12:19:17.844Z,20.29
2022-10-30T12:22:30.586Z,20.58
2022-10-30T12:25:32.528Z,20.59
2022-10-30T12:28:34.740Z,20.41
2022-10-30T12:31:42.494Z,20.48
2022-10-30T12:34:49.550Z,20.44
2022-10-30T12:37:54.114Z,20.68
2022-10-30T12:41:20.006Z,20.74
2022-10-30T12:44:27.025Z,20.76
2022-10-30T12:47:37.266Z,20.76
2022-10-30T12:51:06.433Z,20.64
2022-10-30T12:54:20.174Z,20.73
2022-10-30T12:57:28.654Z,20.73
2022-10-30T13:00:36.331Z,20.73
2022-10-30T13:03:54.516Z,20.97
2022-10-30T13:07:17.402Z,21.00
2022-10-30T13:10:38.244Z,21.04
2022-10-30T13:13:44.904Z,20.98
2022-10-30T13:16:46.726Z,21.07
2022-10-30T13:19:48.344Z,21.02
2022-10-30T13:23:28.181Z,21.07
2022-10-30T13:26:35.693Z,21.15
2022-10-30T13:30:22.147Z,21.04
2022-10-30T13:33:41.327Z,21.18
2022-10-30T13:36:52.034Z,21.11
2022-10-30T13:40:02.647Z,21.10
2022-10-30T13:43:27.905Z,21.20
2022-10-30T13:46:48.160Z,21.26
2022-10-30T13:50:04.557Z,21.33
2022-10-30T13:53:15.268Z,21.47
2022-10-30T13:56:19.510Z,21.58
2022-10-30T13:59:37.462Z,21.46
2022-10-30T14:02:42.148Z,21.59
2022-10-30T14:05:58.570Z,21.65
2022-10-30T14:09:22.001Z,21.55
2022-10-30T14:12:44.096Z,21.65
2022-10-30T14:15:46.822Z,21.48
2022-10-30T14:19:04.759Z,21.35
2022-10-30T14:22:23.701Z,21.14
2022-10-30T14:25:25.365Z,21.09
2022-10-30T14:28:26.806Z,21.22
2022-10-30T14:31:36.844Z,21.19
2022-10-30T14:34:42.494Z,21.20
2022-10-30T14:37:43.817Z,20.87
2022-10-30T14:40:54.180Z,20.75
2022-10-30T14:44:01.393Z,20.83
2022-10-30T14:47:22.112Z,20.76
2022-10-30T14:50:26.665Z,20.72
2022-10-30T14:53:32.704Z,20.44
2022-10-30T14:56:51.366Z,20.51
2022-10-30T15:00:29.307Z,20.26
2022-10-30T15:04:03.191Z,20.24
2022-10-30T15:07:16.465Z,20.16
2022-10-30T15:10:27.555Z,19.98
2022-10-30T15:13:29.045Z,20.00
2022-10-30T15:16:31.518Z,19.91
2022-10-30T15:19:34.984Z,19.77
2022-10-30T15:22:36.635Z,19.83
2022-10-30T15:25:50.360Z,19.72
2022-10-30T15:28:53.760Z,19.71
2022-10-30T15:32:00.199Z,19.62
2022-10-30T15:35:04.940Z,19.35
2022-10-30T15:38:10.206Z,19.38
2022-10-30T15:41:11.761Z,19.26
2022-10-30T15:47:24.354Z,18.82
2022-10-30T15:50:25.974Z,18.79
2022-10-30T15:53:36.668Z,18.80
2022-10-30T15:57:08.241Z,18.65
2022-10-30T16:00:08.421Z,18.74
2022-10-30T16:03:10.848Z,18.55
2022-10-30T16:06:17.741Z,18.52
2022-10-30T16:09:20.171Z,18.60
2022-10-30T16:12:27.208Z,18.61
2022-10-30T16:15:32.074Z,18.55
2022-10-30T16:18:35.989Z,18.17
2022-10-30T16:21:38.065Z,18.13
2022-10-30T16:24:39.836Z,18.09
2022-10-30T16:27:44.932Z,18.12
2022-10-30T16:30:46.608Z,18.18
2022-10-30T16:33:48.767Z,18.06
2022-10-30T16:36:51.167Z,17.99
2022-10-30T16:39:53.654Z,18.07
2022-10-30T16:42:58.479Z,18.04
2022-10-30T16:46:37.877Z,18.08
2022-10-30T16:49:48.571Z,17.78
2022-10-30T16:52:51.182Z,17.49
2022-10-30T16:55:55.224Z,17.39
2022-10-30T16:59:06.441Z,17.43
2022-10-30T17:02:19.320Z,17.60
2022-10-30T17:05:34.651Z,17.55
2022-10-30T17:08:43.709Z,17.63
2022-10-30T17:12:01.395Z,17.35
2022-10-30T17:15:05.845Z,17.37
2022-10-30T17:18:15.375Z,17.11
2022-10-30T17:21:21.274Z,17.23
2022-10-30T17:24:28.798Z,17.23
2022-10-30T17:27:52.313Z,17.21
2022-10-30T17:30:54.459Z,17.14
2022-10-30T17:34:04.603Z,17.08
2022-10-30T17:37:06.021Z,16.92
2022-10-30T17:40:07.987Z,16.91
2022-10-30T17:43:14.463Z,16.87
2022-10-30T17:46:20.285Z,16.76
2022-10-30T17:49:28.520Z,16.55
2022-10-30T17:52:30.153Z,16.63
2022-10-30T17:55:34.343Z,16.36
2022-10-30T17:58:35.785Z,16.24
2022-10-30T18:01:37.267Z,16.52
2022-10-30T18:04:38.775Z,16.35
2022-10-30T18:07:40.222Z,16.37
2022-10-30T18:10:41.725Z,16.36
2022-10-30T18:13:43.370Z,16.35
2022-10-30T18:16:44.861Z,16.49
2022-10-30T18:19:46.268Z,16.63
2022-10-30T18:22:47.865Z,16.47
2022-10-30T18:25:50.508Z,16.27
2022-10-30T18:28:52.199Z,16.38
2022-10-30T18:31:53.613Z,16.52
2022-10-30T18:34:55.175Z,16.44
2022-10-30T18:37:57.466Z,16.13
2022-10-30T18:40:59.424Z,15.92
2022-10-30T18:44:01.285Z,15.84
2022-10-30T18:47:05.100Z,15.92
2022-10-30T18:50:07.163Z,16.07
2022-10-30T18:53:14.024Z,15.93
2022-10-30T18:56:15.533Z,16.16
2022-10-30T18:59:16.927Z,16.16
2022-10-30T19:02:21.119Z,15.59
2022-10-30T19:05:32.545Z,15.62
2022-10-30T19:08:34.053Z,15.85
2022-10-30T19:11:37.323Z,15.91
2022-10-30T19:14:39.845Z,15.72
2022-10-30T19:17:41.326Z,15.60
2022-10-30T19:21:03.388Z,15.63
2022-10-30T19:24:13.094Z,15.90
2022-10-30T19:27:14.497Z,15.92
2022-10-30T19:30:17.849Z,15.46
2022-10-30T19:33:21.986Z,15.33
2022-10-30T19:36:36.042Z,15.39
2022-10-30T19:39:37.626Z,15.38
2022-10-30T19:42:39.050Z,15.20
2022-10-30T19:45:40.604Z,15.11
2022-10-30T19:48:59.302Z,15.14
2022-10-30T19:52:01.514Z,15.23
2022-10-30T19:55:02.934Z,15.14
2022-10-30T19:58:06.583Z,15.44
2022-10-30T20:01:11.067Z,15.46
2022-10-30T20:04:13.071Z,15.40
2022-10-30T20:07:14.535Z,15.44
2022-10-30T20:10:18.635Z,15.15
2022-10-30T20:13:23.174Z,14.89
2022-10-30T20:16:24.605Z,14.92
2022-10-30T20:19:31.248Z,15.06
2022-10-30T20:22:32.651Z,15.17
2022-10-30T20:25:34.115Z,14.85
2022-10-30T20:28:38.072Z,14.81
2022-10-30T20:31:39.483Z,15.08
2022-10-30T20:34:40.896Z,15.15
2022-10-30T20:37:43.240Z,15.15
2022-10-30T20:40:45.835Z,15.08
2022-10-30T20:43:47.298Z,15.15
2022-10-30T20:46:48.740Z,15.14
2022-10-30T20:49:50.286Z,15.16
2022-10-30T20:52:53.388Z,15.07
2022-10-30T20:55:54.850Z,15.15
2022-10-30T20:58:56.398Z,15.16
2022-10-30T21:01:57.876Z,15.15
2022-10-30T21:05:11.616Z,14.85
2022-10-30T21:08:20.864Z,14.99
2022-10-30T21:11:22.322Z,14.90
2022-10-30T21:14:23.741Z,14.82
2022-10-30T21:17:25.120Z,14.52
2022-10-30T21:20:26.551Z,14.76
2022-10-30T21:23:27.954Z,14.81
2022-10-30T21:26:29.413Z,14.82
2022-10-30T21:29:34.223Z,14.98
2022-10-30T21:32:36.714Z,15.07
2022-10-30T21:35:38.242Z,14.70
2022-10-30T21:38:41.942Z,14.55
2022-10-30T21:41:43.346Z,14.63
2022-10-30T21:44:44.785Z,14.50
2022-10-30T21:47:46.218Z,14.35
2022-10-30T21:50:47.713Z,14.38
2022-10-30T21:53:49.603Z,14.28
2022-10-30T21:56:51.058Z,14.35
2022-10-30T21:59:52.475Z,14.21
2022-10-30T22:02:56.513Z,14.30
2022-10-30T22:05:58.064Z,14.51
2022-10-30T22:08:59.885Z,14.56
2022-10-30T22:12:01.356Z,14.61
2022-10-30T22:15:03.128Z,14.66
2022-10-30T22:18:04.745Z,14.66
2022-10-30T22:21:11.775Z,14.57
2022-10-30T22:24:13.669Z,14.37
2022-10-30T22:27:15.086Z,14.15
2022-10-30T22:30:16.593Z,14.17
2022-10-30T22:33:19.002Z,14.13
2022-10-30T22:36:23.489Z,14.34
2022-10-30T22:39:24.995Z,14.43
2022-10-30T22:42:26.395Z,14.37
2022-10-30T22:45:27.881Z,14.29
2022-10-30T22:48:30.239Z,14.41
2022-10-30T22:51:32.679Z,14.47
2022-10-30T22:54:34.123Z,14.35
2022-10-30T22:57:35.552Z,14.27
2022-10-30T23:00:37.026Z,14.24
2022-10-30T23:03:38.535Z,14.17
2022-10-30T23:06:40.158Z,14.13
2022-10-30T23:09:41.552Z,14.06
2022-10-30T23:12:42.952Z,13.73
2022-10-30T23:15:44.420Z,13.85
2022-10-30T23:18:46.636Z,14.00
2022-10-30T23:21:47.958Z,14.02
2022-10-30T23:24:49.344Z,14.00
2022-10-30T23:27:52.921Z,13.77
2022-10-30T23:30:54.337Z,13.76
2022-10-30T23:33:58.797Z,13.80
2022-10-30T23:37:01.856Z,13.83
2022-10-30T23:40:03.670Z,13.85
2022-10-30T23:43:05.232Z,13.88
2022-10-30T23:46:06.745Z,13.90
2022-10-30T23:49:08.203Z,13.93
2022-10-30T23:52:09.592Z,13.78
2022-10-30T23:55:11.113Z,13.62
2022-10-30T23:58:12.551Z,13.80
